Time;durP1;ratioP1;P1;durP2;ratioP2;P2;SDS_P1;SDS_P2;PMS_P1;PMS_P2;Temp;Humidity;BMP_temperature;BMP_pressure;BME280_temperature;BME280_humidity;BME280_pressure;Samples;Min_cycle;Max_cycle;Signal;HPM_P1;HPM_P2
2021/11/01 00:01:34;;;;;;;7.03;6.43;;;11.20;99.90;;;;;;4961120;28;20749;-95
2021/11/01 00:04:03;;;;;;;8.63;7.93;;;11.20;99.90;;;;;;4963425;28;20728;-96
2021/11/01 00:06:30;;;;;;;10.23;9.43;;;11.30;99.90;;;;;;4968898;28;20749;-96
2021/11/01 00:09:00;;;;;;;9.47;8.67;;;11.30;99.90;;;;;;4959180;28;21041;-95
2021/11/01 00:11:29;;;;;;;9.00;8.30;;;11.30;99.90;;;;;;4957712;28;21098;-96
2021/11/01 00:13:56;;;;;;;7.67;6.97;;;11.30;99.90;;;;;;4956999;28;20689;-95
2021/11/01 00:16:24;;;;;;;7.60;7.00;;;11.30;99.90;;;;;;4961522;28;20665;-95
2021/11/01 00:19:01;;;;;;;7.43;6.73;;;11.30;99.90;;;;;;4962674;28;20635;-96
2021/11/01 00:21:28;;;;;;;9.13;7.50;;;11.40;99.90;;;;;;4957073;28;21231;-95
2021/11/01 00:23:55;;;;;;;8.27;7.47;;;11.30;99.90;;;;;;4965507;28;20757;-96
2021/11/01 00:26:30;;;;;;;8.27;7.67;;;11.40;99.90;;;;;;4968441;28;20643;-96
2021/11/01 00:28:57;;;;;;;8.83;8.13;;;11.30;99.90;;;;;;4962933;28;20674;-96
2021/11/01 00:31:25;;;;;;;9.73;8.67;;;11.30;99.90;;;;;;4966530;28;20693;-96
2021/11/01 00:33:52;;;;;;;9.03;8.13;;;11.30;99.90;;;;;;4964347;28;21252;-96
2021/11/01 00:36:18;;;;;;;7.87;7.20;;;11.40;99.90;;;;;;4953276;28;20748;-96
2021/11/01 00:38:46;;;;;;;7.30;6.60;;;11.40;99.90;;;;;;4959723;28;20631;-95
2021/11/01 00:41:15;;;;;;;8.00;7.30;;;11.40;99.90;;;;;;4974885;28;20681;-95
2021/11/01 00:43:47;;;;;;;7.80;7.10;;;11.40;99.90;;;;;;4967184;28;20637;-95
2021/11/01 00:46:14;;;;;;;8.43;7.70;;;11.40;99.90;;;;;;4963677;28;20644;-96
2021/11/01 00:48:41;;;;;;;9.30;8.50;;;11.50;99.90;;;;;;4963766;28;20799;-95
2021/11/01 00:51:08;;;;;;;9.80;9.10;;;11.40;99.90;;;;;;4961082;28;21028;-96
2021/11/01 00:53:37;;;;;;;8.30;7.60;;;11.50;99.90;;;;;;4958422;28;20642;-96
2021/11/01 00:56:04;;;;;;;8.13;7.43;;;11.40;99.90;;;;;;4976483;28;20670;-96
2021/11/01 00:58:33;;;;;;;9.03;8.13;;;11.40;99.90;;;;;;4968766;28;20637;-95
2021/11/01 01:01:01;;;;;;;8.50;7.77;;;11.40;99.90;;;;;;4958108;28;20702;-95
2021/11/01 01:03:31;;;;;;;9.40;8.60;;;11.40;99.90;;;;;;4960471;28;20634;-96
2021/11/01 01:06:01;;;;;;;10.17;9.27;;;11.40;99.90;;;;;;4963798;28;20724;-95
2021/11/01 01:08:28;;;;;;;8.30;7.70;;;11.50;99.90;;;;;;4967294;28;20780;-96
2021/11/01 01:10:56;;;;;;;11.90;10.70;;;11.50;99.90;;;;;;4957674;28;20708;-95
2021/11/01 01:13:27;;;;;;;10.50;9.60;;;11.50;99.90;;;;;;4938511;28;20653;-96
2021/11/01 01:16:08;;;;;;;9.53;8.70;;;11.60;99.90;;;;;;4963615;28;20634;-95
2021/11/01 01:18:37;;;;;;;9.53;8.57;;;11.40;99.90;;;;;;4955730;28;21035;-96
2021/11/01 01:22:11;;;;;;;9.30;8.40;;;11.40;99.90;;;;;;4968199;28;20694;-96
2021/11/01 01:23:51;;;;;;;8.33;7.53;;;11.30;99.90;;;;;;4961184;28;20617;-96
2021/11/01 01:26:21;;;;;;;6.90;6.40;;;11.40;99.90;;;;;;4962387;28;20717;-96
2021/11/01 01:28:48;;;;;;;9.50;8.70;;;11.50;99.90;;;;;;4967022;28;21253;-96
2021/11/01 01:31:17;;;;;;;8.07;7.47;;;11.70;99.90;;;;;;4966955;28;20693;-96
2021/11/01 01:33:48;;;;;;;8.47;7.73;;;11.50;99.90;;;;;;4970114;28;20633;-96
2021/11/01 01:36:19;;;;;;;8.37;7.70;;;11.60;99.90;;;;;;4960446;28;20634;-96
2021/11/01 01:38:46;;;;;;;8.33;7.53;;;11.60;99.90;;;;;;4957650;28;20618;-96
2021/11/01 01:41:15;;;;;;;7.40;6.80;;;11.60;99.90;;;;;;4974870;28;20673;-96
2021/11/01 01:43:45;;;;;;;8.43;7.33;;;11.60;99.90;;;;;;4956551;28;20642;-96
2021/11/01 01:46:13;;;;;;;7.70;7.10;;;11.70;99.90;;;;;;4958600;28;20663;-96
2021/11/01 01:48:44;;;;;;;7.80;7.10;;;11.60;99.90;;;;;;4970376;28;20646;-95
2021/11/01 01:51:14;;;;;;;7.20;6.70;;;11.70;99.90;;;;;;4968854;28;20654;-95
2021/11/01 01:53:42;;;;;;;8.43;6.70;;;11.70;99.90;;;;;;4967564;28;20745;-95
2021/11/01 01:56:09;;;;;;;6.77;6.17;;;11.70;99.90;;;;;;4968035;28;21215;-96
2021/11/01 01:58:53;;;;;;;6.30;5.70;;;11.80;99.90;;;;;;4957550;28;20681;-96
2021/11/01 02:01:22;;;;;;;6.97;6.27;;;11.80;99.90;;;;;;4957308;28;20678;-96
2021/11/01 02:03:53;;;;;;;6.43;5.80;;;11.90;99.90;;;;;;4969402;28;20756;-96
2021/11/01 02:06:31;;;;;;;4.60;4.17;;;11.90;99.90;;;;;;4964949;28;20645;-96
2021/11/01 02:09:03;;;;;;;4.67;4.30;;;12.00;99.90;;;;;;4969353;28;20646;-96
2021/11/01 02:11:40;;;;;;;5.23;4.80;;;12.10;99.90;;;;;;4974946;28;20680;-95
2021/11/01 02:14:12;;;;;;;4.87;3.80;;;12.40;99.90;;;;;;4987056;28;20649;-96
2021/11/01 02:16:41;;;;;;;2.90;2.60;;;12.60;99.90;;;;;;4972686;28;20682;-96
2021/11/01 02:19:15;;;;;;;2.00;1.80;;;13.00;99.90;;;;;;4976611;28;20645;-96
2021/11/01 02:21:49;;;;;;;2.47;1.57;;;13.10;99.90;;;;;;4978552;28;20662;-96
2021/11/01 02:24:28;;;;;;;2.33;1.70;;;13.20;99.90;;;;;;4970777;28;20692;-96
2021/11/01 02:26:58;;;;;;;4.70;1.27;;;13.30;99.90;;;;;;4970403;28;20676;-96
2021/11/01 02:29:26;;;;;;;3.73;1.10;;;13.40;99.90;;;;;;4969867;28;20720;-96
2021/11/01 02:31:54;;;;;;;0.93;0.70;;;13.40;99.90;;;;;;4969780;28;20665;-96
2021/11/01 02:34:22;;;;;;;2.80;0.90;;;13.30;99.90;;;;;;4974943;28;20701;-95
2021/11/01 02:36:49;;;;;;;1.90;0.83;;;13.20;99.90;;;;;;4969964;28;20685;-96
2021/11/01 02:39:17;;;;;;;2.07;0.80;;;13.10;99.90;;;;;;4986158;28;20625;-96
2021/11/01 02:41:45;;;;;;;2.10;1.07;;;13.00;99.90;;;;;;4989957;28;20665;-96
2021/11/01 02:44:14;;;;;;;2.53;1.00;;;12.90;99.90;;;;;;4994724;28;20641;-96
2021/11/01 02:46:49;;;;;;;0.90;0.70;;;12.80;99.90;;;;;;4961972;29;20719;-96
2021/11/01 02:49:17;;;;;;;2.40;0.77;;;12.70;99.90;;;;;;4991468;28;20620;-96
2021/11/01 02:51:44;;;;;;;2.70;0.77;;;12.60;99.90;;;;;;4999852;28;20629;-96
2021/11/01 02:54:25;;;;;;;3.03;0.90;;;12.50;99.90;;;;;;4999594;28;20640;-96
2021/11/01 02:56:59;;;;;;;0.90;0.60;;;12.40;99.90;;;;;;4977757;28;20614;-96
2021/11/01 02:59:33;;;;;;;3.10;1.00;;;12.20;99.90;;;;;;4959844;29;20630;-96
2021/11/01 03:02:18;;;;;;;2.20;0.80;;;12.10;99.90;;;;;;4984137;28;20678;-96
2021/11/01 03:10:20;;;;;;;5.03;0.90;;;11.90;99.90;;;;;;4976890;28;20726;-96
2021/11/01 03:19:38;;;;;;;2.50;1.03;;;11.90;99.90;;;;;;4977238;29;20598;-96
2021/11/01 03:22:55;;;;;;;3.40;0.80;;;11.80;99.90;;;;;;4972380;28;20660;-96
2021/11/01 03:34:37;;;;;;;6.20;1.33;;;11.60;99.90;;;;;;4979079;28;20638;-96
2021/11/01 03:37:11;;;;;;;3.87;1.20;;;11.60;99.90;;;;;;4972974;28;20634;-95
2021/11/01 03:39:42;;;;;;;5.57;0.90;;;11.50;99.90;;;;;;4981589;28;20672;-96
2021/11/01 03:42:12;;;;;;;7.40;1.00;;;11.30;99.90;;;;;;4981457;28;20667;-96
2021/11/01 03:44:45;;;;;;;6.10;1.30;;;11.20;99.90;;;;;;4974104;28;20729;-96
2021/11/01 03:47:15;;;;;;;3.87;1.20;;;11.10;99.90;;;;;;4966729;28;20646;-96
2021/11/01 03:49:50;;;;;;;3.40;0.87;;;11.10;99.90;;;;;;4964650;28;20655;-96
2021/11/01 03:52:25;;;;;;;4.60;1.30;;;11.00;99.90;;;;;;4972246;28;21207;-95
2021/11/01 04:01:14;;;;;;;2.47;0.90;;;10.80;99.90;;;;;;4985637;28;20669;-96
2021/11/01 04:03:45;;;;;;;5.43;1.30;;;10.70;99.90;;;;;;4968121;28;20629;-96
2021/11/01 04:06:17;;;;;;;1.73;1.00;;;10.70;99.90;;;;;;4978807;28;21181;-96
2021/11/01 04:08:47;;;;;;;4.27;1.30;;;10.80;99.90;;;;;;4982955;28;20637;-96
2021/11/01 04:11:34;;;;;;;3.33;1.47;;;10.80;99.90;;;;;;4972895;28;20638;-95
2021/11/01 04:22:34;;;;;;;3.40;1.33;;;10.70;99.90;;;;;;4978468;28;20639;-96
2021/11/01 04:27:46;;;;;;;3.80;1.30;;;10.80;99.90;;;;;;4986002;28;20618;-96
2021/11/01 04:36:18;;;;;;;6.47;1.47;;;10.70;99.90;;;;;;4973729;28;20607;-96
2021/11/01 04:38:58;;;;;;;3.50;1.13;;;10.60;99.90;;;;;;4965889;28;20709;-96
2021/11/01 04:44:36;;;;;;;2.40;0.90;;;10.60;99.90;;;;;;4972690;28;20742;-96
2021/11/01 04:53:01;;;;;;;4.57;1.43;;;10.70;99.90;;;;;;4972590;28;20690;-96
2021/11/01 04:55:32;;;;;;;3.70;1.17;;;10.70;99.90;;;;;;4968035;28;20647;-96
2021/11/01 04:58:04;;;;;;;3.00;1.00;;;10.70;99.90;;;;;;4964759;28;20697;-96
2021/11/01 05:00:31;;;;;;;5.43;1.00;;;10.70;99.90;;;;;;4962550;28;20674;-96
2021/11/01 05:03:02;;;;;;;3.43;1.07;;;10.70;99.90;;;;;;4972779;28;21052;-96
2021/11/01 05:05:36;;;;;;;4.27;1.17;;;10.70;99.90;;;;;;4966960;28;20626;-96
2021/11/01 05:08:17;;;;;;;4.60;0.90;;;10.60;99.90;;;;;;4973516;28;20638;-96
2021/11/01 05:10:47;;;;;;;3.77;1.20;;;10.70;99.90;;;;;;4979087;28;20662;-96
2021/11/01 05:13:19;;;;;;;3.80;1.93;;;10.70;99.90;;;;;;4978564;28;20637;-95
2021/11/01 05:15:49;;;;;;;2.00;0.93;;;10.70;99.90;;;;;;4978098;28;21227;-96
2021/11/01 05:18:22;;;;;;;2.83;1.07;;;10.70;99.90;;;;;;4974035;28;20625;-96
2021/11/01 05:20:54;;;;;;;4.30;1.63;;;10.70;99.90;;;;;;4985429;28;20682;-96
2021/11/01 05:23:31;;;;;;;6.20;1.33;;;10.60;99.90;;;;;;4966635;28;20792;-96
2021/11/01 05:26:03;;;;;;;4.03;1.40;;;10.60;99.90;;;;;;4965149;28;20657;-96
2021/11/01 05:28:41;;;;;;;4.67;1.10;;;10.50;99.90;;;;;;4976759;28;20685;-96
2021/11/01 05:31:15;;;;;;;2.00;1.30;;;10.50;99.90;;;;;;4969423;28;20672;-96
2021/11/01 05:33:55;;;;;;;3.73;1.50;;;10.50;99.90;;;;;;4963780;28;21205;-96
2021/11/01 05:36:22;;;;;;;3.50;1.80;;;10.50;99.90;;;;;;4960882;28;20649;-96
2021/11/01 05:38:52;;;;;;;3.30;1.87;;;10.50;99.90;;;;;;4966121;28;20738;-96
2021/11/01 05:41:20;;;;;;;5.43;2.20;;;10.60;99.90;;;;;;4962841;28;20674;-96
2021/11/01 05:43:49;;;;;;;2.43;1.90;;;10.60;99.90;;;;;;4969346;28;20634;-96
2021/11/01 05:46:17;;;;;;;5.93;3.33;;;10.60;99.90;;;;;;4966962;28;20637;-96
2021/11/01 05:48:54;;;;;;;5.30;2.70;;;10.60;99.90;;;;;;4978361;28;20637;-96
2021/11/01 05:51:23;;;;;;;4.03;2.80;;;10.60;99.90;;;;;;4971566;28;21000;-96
2021/11/01 05:53:55;;;;;;;7.40;3.20;;;10.50;99.90;;;;;;4968628;28;20678;-96
2021/11/01 05:56:31;;;;;;;6.50;3.13;;;10.50;99.90;;;;;;4969331;28;20637;-96
2021/11/01 05:59:19;;;;;;;4.70;3.10;;;10.50;99.90;;;;;;4967331;28;20649;-95
2021/11/01 06:04:49;;;;;;;5.80;3.70;;;10.50;99.90;;;;;;4964753;28;20650;-96
2021/11/01 06:07:29;;;;;;;4.43;4.00;;;10.60;99.90;;;;;;4971650;28;20636;-96
2021/11/01 06:10:06;;;;;;;4.90;4.03;;;10.50;99.90;;;;;;4968928;28;20726;-96
2021/11/01 06:15:22;;;;;;;4.50;4.10;;;10.50;99.90;;;;;;4967428;28;20612;-96
2021/11/01 06:17:50;;;;;;;4.83;4.30;;;10.50;99.90;;;;;;4977344;28;20641;-96
2021/11/01 06:20:18;;;;;;;5.10;4.47;;;10.50;99.90;;;;;;4961503;28;20678;-96
2021/11/01 06:22:45;;;;;;;3.80;3.40;;;10.60;99.90;;;;;;4976337;28;20650;-95
2021/11/01 06:25:16;;;;;;;4.20;3.80;;;10.60;99.90;;;;;;4975874;28;20629;-96
2021/11/01 06:27:44;;;;;;;5.27;4.40;;;10.50;99.90;;;;;;4983063;28;20638;-96
2021/11/01 06:30:22;;;;;;;5.20;4.30;;;10.50;99.90;;;;;;4995966;28;20656;-96
2021/11/01 06:33:00;;;;;;;6.37;4.53;;;10.50;99.90;;;;;;4984167;28;20629;-95
2021/11/01 06:41:42;;;;;;;3.50;3.30;;;10.50;99.90;;;;;;4903161;29;21335;-94
2021/11/01 06:49:50;;;;;;;6.73;4.10;;;10.60;99.90;;;;;;4938474;28;20650;-95
2021/11/01 06:52:38;;;;;;;5.27;4.40;;;10.60;99.90;;;;;;4954203;28;20634;-94
2021/11/01 06:55:21;;;;;;;3.93;3.63;;;10.60;99.90;;;;;;4959327;28;20626;-95
2021/11/01 07:14:50;;;;;;;3.73;2.70;;;10.70;99.90;;;;;;4961231;28;20642;-94
2021/11/01 07:17:26;;;;;;;2.80;1.60;;;10.60;99.90;;;;;;4958878;28;20637;-94
2021/11/01 07:20:10;;;;;;;2.83;2.20;;;10.60;99.90;;;;;;4960316;28;21275;-94
2021/11/01 08:24:07;;;;;;;1.57;1.30;;;10.40;99.90;;;;;;4953363;28;20631;-93
2021/11/01 08:29:42;;;;;;;2.13;1.40;;;10.40;99.90;;;;;;4949504;28;20629;-92
2021/11/01 08:43:18;;;;;;;1.67;1.27;;;10.40;99.90;;;;;;4925428;28;20685;-93
2021/11/01 08:48:53;;;;;;;3.30;1.00;;;10.30;99.90;;;;;;4910315;29;21033;-95
2021/11/01 09:05:21;;;;;;;1.10;1.00;;;10.40;99.90;;;;;;4960849;28;20638;-92
2021/11/01 09:08:08;;;;;;;1.67;1.53;;;10.40;99.90;;;;;;4952062;28;20634;-92
2021/11/01 09:19:18;;;;;;;1.97;1.20;;;10.40;99.90;;;;;;4965687;28;20705;-93
2021/11/01 09:22:10;;;;;;;1.60;1.10;;;10.40;99.90;;;;;;4958942;28;20670;-93
2021/11/01 09:24:47;;;;;;;2.23;1.80;;;10.40;99.90;;;;;;4956007;28;20743;-93
2021/11/01 09:27:26;;;;;;;1.57;1.20;;;10.30;99.90;;;;;;4977571;28;20668;-92
2021/11/01 09:30:06;;;;;;;2.07;1.50;;;10.30;99.90;;;;;;4972121;28;20644;-92
2021/11/01 09:38:42;;;;;;;2.53;1.43;;;10.20;99.90;;;;;;4960471;28;20592;-92
2021/11/01 09:41:11;;;;;;;3.40;1.30;;;10.20;99.90;;;;;;4953548;28;20642;-93
2021/11/01 09:43:44;;;;;;;2.23;2.03;;;10.20;99.90;;;;;;4960621;28;20708;-93
2021/11/01 09:46:11;;;;;;;2.93;1.93;;;10.30;99.90;;;;;;4964433;28;20634;-93
2021/11/01 09:48:40;;;;;;;2.53;1.90;;;10.30;99.90;;;;;;4955119;28;21042;-93
2021/11/01 09:51:08;;;;;;;1.57;1.30;;;10.50;99.90;;;;;;4960515;28;20661;-91
2021/11/01 09:53:44;;;;;;;1.00;0.90;;;10.60;99.90;;;;;;4960965;28;20757;-92
2021/11/01 09:56:21;;;;;;;1.40;0.80;;;10.60;99.90;;;;;;4963130;28;20717;-94
2021/11/01 10:01:36;;;;;;;2.23;1.50;;;10.70;99.90;;;;;;4952497;28;20689;-92
2021/11/01 10:04:28;;;;;;;2.87;1.63;;;10.70;99.90;;;;;;4956058;28;20637;-92
2021/11/01 10:07:21;;;;;;;3.43;1.30;;;10.80;99.90;;;;;;4969067;28;20626;-95
2021/11/01 10:09:52;;;;;;;3.67;1.23;;;10.80;99.90;;;;;;4967084;28;20645;-93
2021/11/01 10:12:44;;;;;;;1.90;1.10;;;10.90;99.90;;;;;;4961549;28;20747;-94
2021/11/01 10:18:04;;;;;;;1.60;1.43;;;10.90;99.90;;;;;;4966686;28;20623;-93
2021/11/01 10:20:42;;;;;;;1.50;1.40;;;10.80;99.90;;;;;;4970072;28;21033;-93
2021/11/01 10:23:20;;;;;;;2.73;1.50;;;10.90;99.90;;;;;;4945656;28;20788;-93
2021/11/01 10:25:48;;;;;;;3.70;1.20;;;10.80;99.90;;;;;;4968579;28;20645;-93
2021/11/01 10:28:29;;;;;;;2.17;1.50;;;10.80;99.90;;;;;;4966329;28;20634;-93
2021/11/01 10:31:10;;;;;;;2.17;1.33;;;10.70;99.90;;;;;;4962926;28;20638;-92
2021/11/01 10:33:43;;;;;;;3.80;1.77;;;10.60;99.90;;;;;;4965904;28;20695;-93
2021/11/01 10:38:55;;;;;;;1.97;1.63;;;10.80;99.90;;;;;;4971034;28;20622;-93
2021/11/01 10:41:26;;;;;;;4.10;2.17;;;10.80;99.90;;;;;;4965185;28;21060;-93
2021/11/01 10:44:06;;;;;;;2.40;2.00;;;10.80;99.90;;;;;;4966752;28;20638;-92
2021/11/01 10:47:26;;;;;;;2.57;1.90;;;10.80;99.90;;;;;;4977456;28;20638;-93
2021/11/01 11:15:26;;;;;;;2.20;2.00;;;11.00;99.90;;;;;;4961461;28;20674;-93
2021/11/01 11:20:56;;;;;;;3.40;2.20;;;11.00;99.90;;;;;;4975179;28;20641;-94
2021/11/01 11:29:32;;;;;;;3.03;2.60;;;10.90;99.90;;;;;;4969958;28;20630;-95
2021/11/01 11:32:24;;;;;;;4.67;2.30;;;10.90;99.90;;;;;;4962540;28;20646;-94
2021/11/01 11:49:02;;;;;;;2.80;2.53;;;11.10;99.90;;;;;;4968254;28;20579;-94
2021/11/01 11:51:36;;;;;;;3.73;2.67;;;11.00;99.90;;;;;;4967914;28;20651;-93
2021/11/01 11:54:08;;;;;;;4.93;2.43;;;11.00;99.90;;;;;;4967355;28;20674;-93
2021/11/01 11:56:39;;;;;;;2.83;2.43;;;11.00;99.90;;;;;;4956188;28;20685;-94
2021/11/01 11:59:18;;;;;;;3.50;2.60;;;11.00;99.90;;;;;;4959096;28;20634;-94
2021/11/01 12:01:55;;;;;;;2.63;2.43;;;11.00;99.90;;;;;;4957386;28;20682;-95
2021/11/01 12:04:29;;;;;;;2.13;2.03;;;10.90;99.90;;;;;;4949026;28;20595;-95
2021/11/01 12:07:00;;;;;;;3.67;2.47;;;10.80;99.90;;;;;;4960208;28;20739;-94
2021/11/01 12:09:34;;;;;;;3.30;3.00;;;10.80;99.90;;;;;;4947955;28;20641;-94
2021/11/01 12:17:52;;;;;;;3.00;2.70;;;10.90;99.90;;;;;;4924213;28;20623;-93
2021/11/01 12:20:25;;;;;;;4.43;2.20;;;11.00;99.90;;;;;;4950532;28;21210;-93
2021/11/01 12:23:03;;;;;;;3.03;2.60;;;11.00;99.90;;;;;;4960304;28;20769;-94
2021/11/01 12:25:47;;;;;;;5.10;2.80;;;11.00;99.90;;;;;;4956099;28;20673;-94
2021/11/01 12:28:19;;;;;;;2.73;2.50;;;11.00;99.90;;;;;;4963517;28;20728;-94
2021/11/01 12:30:59;;;;;;;3.40;3.10;;;11.10;99.90;;;;;;4965842;28;20662;-94
2021/11/01 12:33:30;;;;;;;2.90;2.40;;;11.00;99.90;;;;;;4954657;28;21066;-93
2021/11/01 12:36:06;;;;;;;4.77;3.27;;;11.10;99.90;;;;;;4951901;28;20726;-94
2021/11/01 12:38:41;;;;;;;2.57;2.10;;;11.00;99.90;;;;;;4959659;28;21197;-94
2021/11/01 12:41:42;;;;;;;4.17;2.97;;;11.00;99.90;;;;;;4959646;28;20665;-94
2021/11/01 12:58:00;;;;;;;4.10;3.70;;;11.00;99.90;;;;;;4965246;28;20580;-94
2021/11/01 13:00:39;;;;;;;4.13;3.73;;;11.10;99.90;;;;;;4955733;28;20649;-95
2021/11/01 13:03:23;;;;;;;4.37;3.20;;;11.00;99.90;;;;;;4958976;28;20666;-94
2021/11/01 13:05:54;;;;;;;4.10;3.60;;;11.00;99.90;;;;;;4960259;28;21028;-95
2021/11/01 13:08:28;;;;;;;3.73;3.40;;;11.00;99.90;;;;;;4959686;28;20684;-94
2021/11/01 13:11:02;;;;;;;3.63;3.33;;;11.10;99.90;;;;;;4952346;28;20680;-94
2021/11/01 13:13:58;;;;;;;9.23;4.30;;;11.10;99.90;;;;;;4966556;28;20688;-94
2021/11/01 13:19:19;;;;;;;4.70;4.20;;;11.10;99.90;;;;;;4966767;28;20754;-94
2021/11/01 13:21:53;;;;;;;4.37;3.90;;;11.00;99.90;;;;;;4969368;28;20694;-94
2021/11/01 13:24:25;;;;;;;4.17;3.77;;;11.00;99.90;;;;;;4955662;28;20665;-91
2021/11/01 13:27:01;;;;;;;4.47;4.07;;;11.10;99.90;;;;;;4961111;28;20646;-91
2021/11/01 13:35:29;;;;;;;4.73;4.37;;;11.00;99.90;;;;;;4961675;28;21191;-91
2021/11/01 13:38:04;;;;;;;3.80;3.50;;;11.00;99.90;;;;;;4940348;28;20632;-92
2021/11/01 13:40:35;;;;;;;7.73;3.90;;;11.00;99.90;;;;;;4959274;28;20651;-92
2021/11/01 13:43:03;;;;;;;5.43;3.60;;;11.00;99.90;;;;;;4972310;28;20674;-93
2021/11/01 13:45:32;;;;;;;4.57;3.60;;;11.10;99.90;;;;;;4955663;28;20635;-92
2021/11/01 13:48:01;;;;;;;3.63;3.33;;;11.00;99.90;;;;;;4961746;28;21518;-92
2021/11/01 13:50:36;;;;;;;5.00;4.00;;;11.00;99.90;;;;;;4961471;28;20640;-91
2021/11/01 13:53:10;;;;;;;5.03;4.53;;;11.00;99.90;;;;;;4965212;28;20625;-91
2021/11/01 13:55:47;;;;;;;6.50;4.50;;;11.00;99.90;;;;;;4961459;28;20625;-92
2021/11/01 13:58:32;;;;;;;5.67;4.23;;;11.00;99.90;;;;;;4961785;28;20656;-94
2021/11/01 14:12:26;;;;;;;6.70;4.30;;;11.10;99.90;;;;;;4959784;28;20637;-94
2021/11/01 14:14:57;;;;;;;4.57;4.17;;;11.10;99.90;;;;;;4959601;28;20644;-95
2021/11/01 14:28:39;;;;;;;5.50;4.00;;;11.20;99.90;;;;;;4946175;28;20607;-94
2021/11/01 14:31:32;;;;;;;4.23;3.43;;;11.30;99.90;;;;;;4962606;28;20658;-95
2021/11/01 14:34:38;;;;;;;4.00;3.70;;;11.30;99.90;;;;;;4965523;28;20638;-95
2021/11/01 14:59:38;;;;;;;4.30;3.17;;;11.20;99.90;;;;;;4954944;28;20606;-94
2021/11/01 15:13:54;;;;;;;3.47;2.90;;;11.20;99.90;;;;;;5149331;27;20705;-95
2021/11/01 15:22:04;;;;;;;3.13;2.83;;;11.40;99.90;;;;;;5168819;27;20633;-94
2021/11/01 16:17:56;;;;;;;3.60;3.30;;;10.80;99.90;;;;;;5128786;28;20624;-94
2021/11/01 16:20:26;;;;;;;4.30;3.90;;;10.70;99.90;;;;;;5128247;28;20650;-95
2021/11/01 16:23:05;;;;;;;3.87;2.97;;;10.80;99.90;;;;;;5126193;27;20674;-94
2021/11/01 16:25:35;;;;;;;3.70;3.40;;;10.90;99.90;;;;;;5131236;27;21007;-94
2021/11/01 16:28:02;;;;;;;4.03;2.93;;;10.80;99.90;;;;;;5123608;27;20627;-94
2021/11/01 16:30:32;;;;;;;3.73;3.30;;;10.60;99.90;;;;;;5134864;27;20773;-94
2021/11/01 16:33:02;;;;;;;5.60;3.40;;;10.50;99.90;;;;;;5131384;27;20709;-94
2021/11/01 16:35:36;;;;;;;6.73;3.27;;;10.40;99.90;;;;;;5132260;27;20698;-94
2021/11/01 16:38:09;;;;;;;4.10;3.63;;;10.40;99.90;;;;;;5132537;27;20664;-95
2021/11/01 16:40:37;;;;;;;5.33;4.10;;;10.40;99.90;;;;;;5126996;27;20698;-95
2021/11/01 16:43:13;;;;;;;4.13;3.70;;;10.40;99.90;;;;;;5125738;28;20658;-95
2021/11/01 16:45:41;;;;;;;5.40;4.17;;;10.40;99.90;;;;;;5125064;28;20729;-95
2021/11/01 16:48:09;;;;;;;5.13;3.97;;;10.50;99.90;;;;;;5119156;28;20646;-94
2021/11/01 16:50:40;;;;;;;3.60;3.30;;;10.50;99.90;;;;;;5113464;28;20762;-95
2021/11/01 16:53:08;;;;;;;4.27;3.87;;;10.50;99.90;;;;;;5107100;27;20631;-94
2021/11/01 16:55:40;;;;;;;3.93;3.63;;;10.40;99.90;;;;;;5116079;28;20626;-95
2021/11/01 16:58:14;;;;;;;5.43;4.20;;;10.50;99.90;;;;;;5108900;27;20628;-95
2021/11/01 17:00:46;;;;;;;4.90;4.50;;;10.50;99.90;;;;;;5107037;28;20631;-96
2021/11/01 17:03:35;;;;;;;4.33;3.97;;;10.50;99.90;;;;;;5110141;28;20631;-95
2021/11/01 17:06:26;;;;;;;18.37;16.97;;;10.50;99.90;;;;;;5130087;28;20611;-95
2021/11/01 17:09:26;;;;;;;5.50;4.70;;;10.40;99.90;;;;;;5135682;27;20650;-95
2021/11/01 17:23:30;;;;;;;4.83;3.67;;;10.10;99.90;;;;;;5103769;28;20603;-94
2021/11/01 17:26:22;;;;;;;5.87;5.30;;;10.00;99.90;;;;;;5114252;27;21072;-94
2021/11/01 17:29:09;;;;;;;6.10;4.67;;;9.90;99.90;;;;;;5114361;28;21242;-94
2021/11/01 17:37:17;;;;;;;6.63;6.13;;;9.90;99.90;;;;;;5111556;28;20595;-95
2021/11/01 18:39:21;;;;;;;26.27;24.20;;;9.30;99.90;;;;;;5046730;28;20864;-94
2021/11/01 18:42:18;;;;;;;10.50;9.70;;;9.30;99.90;;;;;;5097020;28;20651;-94
2021/11/01 18:50:57;;;;;;;9.80;9.10;;;9.30;99.90;;;;;;5118571;28;20662;-94
2021/11/01 18:53:30;;;;;;;9.80;9.00;;;9.40;99.90;;;;;;5120211;27;21179;-94
2021/11/01 18:55:58;;;;;;;10.00;9.13;;;9.40;99.90;;;;;;5114445;28;20634;-95
2021/11/01 18:58:27;;;;;;;10.67;9.77;;;9.40;99.90;;;;;;5113728;28;20672;-95
2021/11/01 19:00:59;;;;;;;11.17;10.17;;;9.50;99.90;;;;;;5113926;27;20631;-93
2021/11/01 19:03:36;;;;;;;11.70;10.60;;;9.40;99.90;;;;;;5113727;27;20663;-94
2021/11/01 19:06:13;;;;;;;8.37;7.77;;;9.30;99.90;;;;;;5114706;28;20634;-94
2021/11/01 19:08:50;;;;;;;9.57;8.77;;;9.30;99.90;;;;;;5106905;28;20983;-94
2021/11/01 19:11:50;;;;;;;9.47;8.67;;;9.30;99.90;;;;;;5113304;28;20660;-93
2021/11/01 20:05:36;;;;;;;6.57;5.97;;;8.00;99.90;;;;;;5101882;28;20667;-95
2021/11/01 20:13:53;;;;;;;5.70;5.20;;;7.80;99.90;;;;;;5117523;28;20594;-94
2021/11/01 20:16:44;;;;;;;5.70;5.30;;;7.80;99.90;;;;;;5117676;28;20729;-94
2021/11/01 21:24:41;;;;;;;3.90;3.50;;;7.00;99.90;;;;;;5117964;28;20754;-93
2021/11/01 21:27:09;;;;;;;5.50;3.60;;;7.10;99.90;;;;;;5117706;28;20637;-94
2021/11/01 21:30:03;;;;;;;3.13;2.90;;;7.10;99.90;;;;;;5127087;28;20655;-96
2021/11/01 21:32:47;;;;;;;3.00;2.80;;;7.50;99.90;;;;;;5130506;28;21047;-95
2021/11/01 21:35:18;;;;;;;4.77;3.67;;;7.50;99.90;;;;;;5127114;28;20666;-95
2021/11/01 21:37:51;;;;;;;4.60;3.60;;;7.50;99.90;;;;;;5131012;27;21214;-94
2021/11/01 21:40:27;;;;;;;5.00;3.60;;;7.50;99.90;;;;;;5131595;27;20674;-94
2021/11/01 21:43:01;;;;;;;3.70;3.50;;;7.40;99.90;;;;;;5127150;27;20667;-93
2021/11/01 21:45:34;;;;;;;5.80;5.23;;;7.40;99.90;;;;;;5134087;28;20623;-94
2021/11/01 21:48:10;;;;;;;4.87;4.50;;;7.40;99.90;;;;;;5132268;28;20649;-94
2021/11/01 21:50:38;;;;;;;5.73;5.13;;;7.30;99.90;;;;;;5128008;28;20668;-94
2021/11/01 21:53:06;;;;;;;4.83;4.33;;;7.20;99.90;;;;;;5133835;27;20707;-93
2021/11/01 21:55:36;;;;;;;5.50;5.07;;;7.10;99.90;;;;;;5130491;28;20634;-93
2021/11/01 21:58:07;;;;;;;4.90;4.50;;;7.00;99.90;;;;;;5133782;28;20661;-93
2021/11/01 22:00:47;;;;;;;5.53;5.13;;;7.00;99.90;;;;;;5136073;27;20631;-93
2021/11/01 22:17:38;;;;;;;4.70;4.23;;;6.70;99.90;;;;;;5136401;28;20602;-94
2021/11/01 22:20:09;;;;;;;5.20;4.70;;;6.80;99.90;;;;;;5136412;28;20719;-94
2021/11/01 22:22:46;;;;;;;6.00;4.57;;;6.60;99.90;;;;;;5137067;28;20641;-94
2021/11/01 22:25:20;;;;;;;4.30;3.93;;;6.60;99.90;;;;;;5136905;28;20627;-94
2021/11/01 22:33:34;;;;;;;5.13;4.30;;;6.60;99.90;;;;;;5136390;28;20663;-92
2021/11/01 22:39:05;;;;;;;6.17;5.67;;;6.50;99.90;;;;;;5134244;28;20627;-93
2021/11/01 22:47:36;;;;;;;6.10;4.50;;;6.40;99.90;;;;;;5134970;28;20602;-94
2021/11/01 22:55:57;;;;;;;4.70;4.30;;;6.50;99.90;;;;;;5128917;28;20625;-93
2021/11/01 22:58:28;;;;;;;5.80;4.10;;;6.60;99.90;;;;;;5128712;28;20618;-92
2021/11/01 23:01:00;;;;;;;6.20;5.53;;;6.60;99.90;;;;;;5132787;28;20666;-94
2021/11/01 23:03:32;;;;;;;5.43;4.93;;;6.70;99.90;;;;;;5136526;28;20703;-93
2021/11/01 23:33:52;;;;;;;7.27;6.60;;;7.40;99.90;;;;;;5130882;28;20677;-94
2021/11/01 23:36:19;;;;;;;6.40;5.90;;;7.50;99.90;;;;;;5128348;28;20615;-93
2021/11/01 23:38:47;;;;;;;6.97;6.43;;;7.50;99.90;;;;;;5128203;28;20646;-93
2021/11/01 23:41:14;;;;;;;8.90;7.23;;;7.60;99.90;;;;;;5118612;28;20694;-95
2021/11/01 23:43:53;;;;;;;7.73;7.10;;;7.60;99.90;;;;;;5133176;28;20650;-95
2021/11/01 23:46:25;;;;;;;7.50;7.00;;;7.60;99.90;;;;;;5130240;28;20693;-94
2021/11/01 23:49:03;;;;;;;8.90;8.20;;;7.50;99.90;;;;;;5132438;28;20637;-95
2021/11/01 23:51:32;;;;;;;8.37;7.67;;;7.50;99.90;;;;;;5136977;28;20654;-94
2021/11/01 23:54:12;;;;;;;9.50;8.80;;;7.60;99.90;;;;;;5137249;28;20641;-95
2021/11/01 23:56:40;;;;;;;8.83;8.23;;;7.60;99.90;;;;;;5137751;28;20611;-95
2021/11/01 23:59:09;;;;;;;9.40;8.50;;;7.50;99.90;;;;;;5139303;28;20654;-95
